Aniak, AK

3:51 PM AKDT on July 31, 2014 (GMT -0800)
Aniak (PANI) Elev 85 ft | 61.58 °N, 159.54 °W | Change Station

Current weather conditions updated 15 minutes ago

Overcast
Overcast
61 °F
Feels Like 61 °F
N
4
Wind Variable Wind from West

Today is forecast to be Much Cooler than yesterday. Chance of showers.

Today
High -- | Low -- °F
--% Chance of Precip.
Yesterday
High -- | Low -- °F
Precip. -- in
6:05 AM 11:21 PM
Waxing Crescent, 22% visible
Pressure 30.28 in
Visibility 10.0 miles
Clouds Overcast 7000 ft
Dew Point 52 °F
Humidity 72%
Rainfall 0.00 in
Snow Depth Not available.
UV 2 out of 12
Pollen Not available.
Air Quality Not available.
Flu Activity Not available.
METAR PANI 312336Z AUTO 28003KT 10SM OVC070 16/11 A3028 RMK AO1

More Conditions Fewer Conditions

Pressure 30.28 in
Visibility 10.0 miles
Clouds Overcast 7000 ft
Dew Point 52 °F
Humidity 72%
Rainfall 0.00 in
Snow Depth Not available.
UV 2 out of 12
Pollen Not available.
Air Quality Not available.
Flu Activity Not available.
METAR PANI 312336Z AUTO 28003KT 10SM OVC070 16/11 A3028 RMK AO1

More Conditions Fewer Conditions

10-Day Weather Forecast

Almanac

Astronomy

Jul. 31, 2014 Rise Set
Actual Time 6:05 AM AKDT 11:21 PM AKDT
Civil Twilight 4:56 AM AKDT 12:28 AM AKDT
Nautical Twilight 3:16 AM AKDT 2:11 AM AKDT
Astronomical Twilight Sun does not rise Sun does not rise
Moon 12:24 PM AKDT 11:53 PM AKDT
Length of Visible Light 19h 32m
Length of Day
17h 15m
Tomorrow will be 5m 20s shorter.
Waxing Crescent, 22% of the Moon is Illuminated
Today
Waxing Crescent
Aug 3
First Quarter
Aug 10
Full
Aug 17
Last Quarter
Aug 25
New

Today's Extremes

State Highs State Lows

Community

WunderPhotos

Upload Photos

1,739,460 photos uploaded!

Nearby

Snow Depth

Station Depth Elevation
Rocky Point 3 in 500 ft
Pargon Creek 0 in 300 ft
Mcneil Canyon 1 in 1320 ft
Susitna Valley High 1 in 375 ft
Point Mackenzie 1 in 200 ft

Earthquake Activity

City Distance Mag. Time & Date
No recent earthquake activity has been reported nearby.
Minimum magnitude displayed is 2.5.

Coastal Water Temperatures

Place Temperature
No Stations Reporting

Nearby Weather Stations

There are no personal weather stations in this area.